< Typhoon 200615 2006 Season Typhoon 200617 >
Typhoon 200616 (BEBINCA)
General InformationTrack Information on Google MapsDetailed Wind InformationAccess Analytics MapList of All Images || NewsDisaster Info.WeblogTrackbackTyphoon FrontResourceGoogle EarthGE AnimationAtom FeedGeoJSON
Detalied Best Track (Time Zone = UTC)
Year Month Day Hour Lat. Long. Pressure (hPa) Wind (kt) Class Image Chart
2006 9 28 12 12.9 143.5 1004 0 2 Image Chart
2006 9 28 18 12.6 143.0 1002 0 2 Image Chart
2006 9 29 00 12.3 142.6 1002 0 2 Image Chart
2006 9 29 06 12.2 142.2 1002 0 2 Image Chart
2006 9 29 12 12.0 141.7 1002 0 2 Image Chart
2006 9 29 18 11.8 141.2 1000 0 2 Image Chart
2006 9 30 00 11.9 140.4 1002 0 2 Image Chart
2006 9 30 06 12.1 139.7 1000 0 2 Image Chart
2006 9 30 12 12.5 138.8 1000 0 2 Image Chart
2006 9 30 18 13.0 137.7 998 0 2 Image Chart
2006 10 1 00 13.3 136.5 998 0 2 Image Chart
2006 10 1 06 13.7 135.1 996 0 2 Image Chart
2006 10 1 12 13.9 134.4 996 0 2 Image Chart
2006 10 1 18 14.1 133.5 994 0 2 Image Chart
2006 10 2 00 14.3 132.7 994 0 2 Image Chart
2006 10 2 06 14.4 131.9 992 0 2 Image Chart
2006 10 2 12 14.6 131.6 992 0 2 Image Chart
2006 10 2 18 15.0 131.3 992 0 2 Image Chart
2006 10 3 00 15.4 131.2 992 35 3 Image Chart
2006 10 3 06 15.9 131.2 990 35 3 Image Chart
2006 10 3 12 17.3 131.8 990 35 3 Image Chart
2006 10 3 18 18.4 131.8 985 40 3 Image Chart
2006 10 4 00 19.3 131.6 985 40 3 Image Chart
2006 10 4 06 20.6 131.8 985 45 3 Image Chart
2006 10 4 12 22.1 132.7 985 45 3 Image Chart
2006 10 4 18 23.3 133.6 980 50 4 Image Chart
2006 10 5 00 24.5 134.5 980 50 4 Image Chart
2006 10 5 06 25.7 135.6 980 50 4 Image Chart
2006 10 5 12 26.7 136.6 980 50 4 Image Chart
2006 10 5 18 27.9 137.6 980 45 3 Image Chart
2006 10 6 00 29.1 138.7 980 40 3 Image Chart
2006 10 6 06 29.7 140.4 982 0 2 Image Chart
Japan Meteorological Agency Best Track Data | Correction Date : 2006-11-22
< Typhoon 200615 2006 Season Typhoon 200617 >

Help